Time;durP1;ratioP1;P1;durP2;ratioP2;P2;SDS_P1;SDS_P2;PMS_P1;PMS_P2;Temp;Humidity;BMP_temperature;BMP_pressure;BME280_temperature;BME280_humidity;BME280_pressure;Samples;Min_cycle;Max_cycle;Signal;HPM_P1;HPM_P2
2021/11/06 00:00:39;;;;;;;;;;;282.10;2278.40;;;;;;4996788;28;19909;-82
2021/11/06 00:03:06;;;;;;;;;;;282.20;2278.40;;;;;;4995595;28;19956;-79
2021/11/06 00:05:32;;;;;;;;;;;282.10;2278.40;;;;;;4998754;28;19949;-76
2021/11/06 00:07:58;;;;;;;;;;;282.10;2278.40;;;;;;4988098;28;19906;-77
2021/11/06 00:10:24;;;;;;;;;;;282.20;2278.40;;;;;;4976425;28;19929;-79
2021/11/06 00:12:49;;;;;;;;;;;282.20;2278.40;;;;;;4976355;28;19910;-77
2021/11/06 00:15:15;;;;;;;;;;;282.00;2278.40;;;;;;4974970;28;19914;-78
2021/11/06 00:17:41;;;;;;;;;;;281.70;2278.40;;;;;;4974667;28;19906;-77
2021/11/06 00:20:07;;;;;;;;;;;256.90;2252.80;;;;;;4975115;28;19906;-79
2021/11/06 00:22:33;;;;;;;;;;;256.90;2252.80;;;;;;4974699;28;20392;-77
2021/11/06 00:24:59;;;;;;;;;;;256.90;2252.80;;;;;;4974751;28;19910;-80
2021/11/06 00:27:25;;;;;;;;;;;256.80;2252.80;;;;;;4975886;28;19906;-79
2021/11/06 00:29:50;;;;;;;;;;;256.90;2252.80;;;;;;4974308;28;19977;-78
2021/11/06 00:32:16;;;;;;;;;;;281.60;2278.40;;;;;;4974585;28;19921;-78
2021/11/06 00:34:42;;;;;;;;;;;281.70;2278.40;;;;;;4974349;28;19920;-78
2021/11/06 00:37:07;;;;;;;;;;;281.80;2278.40;;;;;;4974337;28;19910;-78
2021/11/06 00:39:33;;;;;;;;;;;281.70;2278.40;;;;;;4975045;28;20358;-78
2021/11/06 00:41:59;;;;;;;;;;;281.80;2278.40;;;;;;4974076;28;19914;-78
2021/11/06 00:44:24;;;;;;;;;;;281.90;2278.40;;;;;;4974002;28;19906;-78
2021/11/06 00:46:50;;;;;;;;;;;281.90;2278.40;;;;;;4974371;28;19906;-79
2021/11/06 00:49:16;;;;;;;;;;;281.90;2278.40;;;;;;4974138;28;19913;-79
2021/11/06 00:51:41;;;;;;;;;;;281.90;2278.40;;;;;;4974112;28;19906;-78
2021/11/06 00:54:07;;;;;;;;;;;282.00;2278.40;;;;;;4986799;28;19965;-77
2021/11/06 00:56:32;;;;;;;;;;;282.00;2278.40;;;;;;4989168;28;19981;-78
2021/11/06 00:58:58;;;;;;;;;;;282.00;2278.40;;;;;;4975904;28;20344;-80
2021/11/06 01:01:24;;;;;;;;;;;281.90;2278.40;;;;;;4973664;28;19918;-76
2021/11/06 01:03:49;;;;;;;;;;;281.90;2278.40;;;;;;4973780;28;19914;-77
2021/11/06 01:06:15;;;;;;;;;;;281.90;2278.40;;;;;;4973583;28;19906;-76
2021/11/06 01:08:43;;;;;;;;;;;282.10;2278.40;;;;;;4975225;28;19910;-75
2021/11/06 01:11:09;;;;;;;;;;;282.10;2278.40;;;;;;4973832;28;20308;-75
2021/11/06 01:13:34;;;;;;;;;;;282.10;2278.40;;;;;;4973632;28;19910;-76
2021/11/06 01:16:00;;;;;;;;;;;282.00;2278.40;;;;;;4972788;28;19918;-75
2021/11/06 01:18:26;;;;;;;;;;;282.00;2278.40;;;;;;4974601;28;20249;-75
2021/11/06 01:20:51;;;;;;;;;;;282.00;2278.40;;;;;;4974040;28;19906;-78
2021/11/06 01:23:17;;;;;;;;;;;282.10;2278.40;;;;;;4974266;28;19906;-75
2021/11/06 01:25:42;;;;;;;;;;;282.00;2278.40;;;;;;4972988;28;19906;-75
2021/11/06 01:28:08;;;;;;;;;;;282.00;2278.40;;;;;;4972811;28;19948;-77
2021/11/06 01:30:34;;;;;;;;;;;282.10;2278.40;;;;;;4972675;28;19918;-76
2021/11/06 01:33:00;;;;;;;;;;;282.20;2278.40;;;;;;4972935;28;20283;-76
2021/11/06 01:35:26;;;;;;;;;;;282.30;2278.40;;;;;;4974532;28;19914;-77
2021/11/06 01:37:51;;;;;;;;;;;282.30;2278.40;;;;;;4973885;28;19992;-77
2021/11/06 01:40:18;;;;;;;;;;;282.20;2278.40;;;;;;4975003;28;19906;-80
2021/11/06 01:42:44;;;;;;;;;;;282.30;2278.40;;;;;;4974612;28;20001;-77
2021/11/06 01:45:12;;;;;;;;;;;282.30;2278.40;;;;;;4974657;28;20411;-78
2021/11/06 01:47:37;;;;;;;;;;;282.20;2278.40;;;;;;4974185;28;20001;-78
2021/11/06 01:50:04;;;;;;;;;;;282.40;2278.40;;;;;;4972702;28;19971;-76
2021/11/06 01:52:30;;;;;;;;;;;282.50;2278.40;;;;;;4973517;28;19910;-76
2021/11/06 01:54:56;;;;;;;;;;;282.50;2278.40;;;;;;4972363;28;20442;-77
2021/11/06 01:57:22;;;;;;;;;;;282.30;2278.40;;;;;;4972605;28;20260;-76
2021/11/06 01:59:47;;;;;;;;;;;282.30;2278.40;;;;;;4973275;28;19965;-77
2021/11/06 02:02:13;;;;;;;;;;;282.20;2278.40;;;;;;4972391;28;19914;-76
2021/11/06 02:04:38;;;;;;;;;;;282.30;2278.40;;;;;;4973277;28;19910;-76
2021/11/06 02:07:04;;;;;;;;;;;282.30;2278.40;;;;;;4974015;28;19997;-76
2021/11/06 02:09:30;;;;;;;;;;;282.30;2278.40;;;;;;4972381;28;19913;-76
2021/11/06 02:11:56;;;;;;;;;;;282.30;2278.40;;;;;;4971993;28;20455;-76
2021/11/06 02:14:22;;;;;;;;;;;282.30;2278.40;;;;;;4971934;28;20382;-76
2021/11/06 02:16:48;;;;;;;;;;;282.20;2278.40;;;;;;4972365;28;19906;-76
2021/11/06 02:19:14;;;;;;;;;;;282.20;2278.40;;;;;;4972079;28;19906;-77
2021/11/06 02:21:39;;;;;;;;;;;282.20;2278.40;;;;;;4972252;28;19906;-77
2021/11/06 02:24:06;;;;;;;;;;;282.20;2278.40;;;;;;4972105;28;20359;-76
2021/11/06 02:26:32;;;;;;;;;;;282.30;2278.40;;;;;;4970381;28;19910;-77
2021/11/06 02:28:59;;;;;;;;;;;282.00;2278.40;;;;;;4972118;28;19954;-76
2021/11/06 02:31:25;;;;;;;;;;;282.20;2278.40;;;;;;4971626;28;19922;-77
2021/11/06 02:33:51;;;;;;;;;;;281.70;2278.40;;;;;;4973257;28;19910;-75
2021/11/06 02:36:17;;;;;;;;;;;281.80;2278.40;;;;;;4971382;28;19917;-77
2021/11/06 02:38:43;;;;;;;;;;;281.80;2278.40;;;;;;4971899;28;20005;-75
2021/11/06 02:41:09;;;;;;;;;;;281.90;2278.40;;;;;;4972994;28;20000;-76
2021/11/06 02:43:34;;;;;;;;;;;281.80;2278.40;;;;;;4973070;28;20268;-76
2021/11/06 02:46:00;;;;;;;;;;;281.60;2278.40;;;;;;4971835;28;19910;-78
2021/11/06 02:48:26;;;;;;;;;;;281.90;2278.40;;;;;;4972735;28;19912;-76
2021/11/06 02:50:52;;;;;;;;;;;282.00;2278.40;;;;;;4973208;28;19906;-77
2021/11/06 02:53:17;;;;;;;;;;;282.00;2278.40;;;;;;4971614;28;20344;-77
2021/11/06 02:55:43;;;;;;;;;;;282.10;2278.40;;;;;;4971975;28;20356;-77
2021/11/06 02:58:09;;;;;;;;;;;282.10;2278.40;;;;;;4973501;28;20473;-76
2021/11/06 03:00:34;;;;;;;;;;;282.10;2278.40;;;;;;4972953;28;20645;-77
2021/11/06 03:03:00;;;;;;;;;;;282.10;2278.40;;;;;;4972976;28;19914;-77
2021/11/06 03:05:26;;;;;;;;;;;282.10;2278.40;;;;;;4973114;28;20005;-76
2021/11/06 03:07:51;;;;;;;;;;;282.10;2278.40;;;;;;4972548;28;19906;-76
2021/11/06 03:10:17;;;;;;;;;;;282.20;2278.40;;;;;;4971717;28;19906;-77
2021/11/06 03:12:47;;;;;;;;;;;282.10;2278.40;;;;;;4971841;28;19913;-75
2021/11/06 03:15:13;;;;;;;;;;;282.10;2278.40;;;;;;4972933;28;20424;-75
2021/11/06 03:17:39;;;;;;;;;;;282.10;2278.40;;;;;;4972943;28;20009;-76
2021/11/06 03:20:05;;;;;;;;;;;282.10;2278.40;;;;;;4972846;28;20283;-76
2021/11/06 03:22:31;;;;;;;;;;;282.30;2278.40;;;;;;4973011;28;19906;-75
2021/11/06 03:24:57;;;;;;;;;;;282.10;2278.40;;;;;;4972808;28;19910;-76
2021/11/06 03:27:23;;;;;;;;;;;282.10;2278.40;;;;;;4973183;28;19910;-76
2021/11/06 03:29:49;;;;;;;;;;;282.20;2278.40;;;;;;4972522;28;19910;-75
2021/11/06 03:32:14;;;;;;;;;;;282.00;2278.40;;;;;;4972825;28;19926;-75
2021/11/06 03:34:40;;;;;;;;;;;281.90;2278.40;;;;;;4976422;28;20271;-76
2021/11/06 03:37:06;;;;;;;;;;;281.90;2278.40;;;;;;4976553;28;19906;-76
2021/11/06 03:39:32;;;;;;;;;;;281.70;2278.40;;;;;;4979219;28;19906;-76
2021/11/06 03:41:57;;;;;;;;;;;256.90;2252.80;;;;;;4976304;28;19910;-75
2021/11/06 03:44:23;;;;;;;;;;;256.90;2252.80;;;;;;4976966;28;20400;-75
2021/11/06 03:46:49;;;;;;;;;;;256.90;2252.80;;;;;;4976061;28;19910;-76
2021/11/06 03:49:14;;;;;;;;;;;256.80;2252.80;;;;;;4976495;28;19906;-75
2021/11/06 03:51:41;;;;;;;;;;;256.70;2252.80;;;;;;4976143;28;19910;-75
2021/11/06 03:54:07;;;;;;;;;;;256.70;2252.80;;;;;;4976069;28;19929;-76
2021/11/06 03:56:33;;;;;;;;;;;256.90;2252.80;;;;;;4976145;28;19914;-75
2021/11/06 03:58:59;;;;;;;;;;;256.80;2252.80;;;;;;4976248;28;20045;-76
2021/11/06 04:01:24;;;;;;;;;;;281.90;2278.40;;;;;;4958455;28;19913;-75
2021/11/06 04:03:50;;;;;;;;;;;282.00;2278.40;;;;;;4974724;28;20004;-76
2021/11/06 04:06:16;;;;;;;;;;;282.00;2278.40;;;;;;4976110;28;19906;-76
2021/11/06 04:08:42;;;;;;;;;;;282.00;2278.40;;;;;;4976096;28;19953;-76
2021/11/06 04:11:07;;;;;;;;;;;281.90;2278.40;;;;;;4976562;28;19906;-75
2021/11/06 04:13:33;;;;;;;;;;;282.00;2278.40;;;;;;4977688;28;19906;-75
2021/11/06 04:15:59;;;;;;;;;;;282.10;2278.40;;;;;;4975853;28;20004;-75
2021/11/06 04:18:25;;;;;;;;;;;282.20;2278.40;;;;;;4958444;28;19910;-75
2021/11/06 04:20:50;;;;;;;;;;;282.30;2278.40;;;;;;4975628;28;20340;-75
2021/11/06 04:23:16;;;;;;;;;;;282.00;2278.40;;;;;;4982406;28;19916;-75
2021/11/06 04:25:42;;;;;;;;;;;282.40;2278.40;;;;;;4980396;28;19993;-75
2021/11/06 04:28:07;;;;;;;;;;;282.50;2278.40;;;;;;4975505;28;19906;-76
2021/11/06 04:30:33;;;;;;;;;;;282.40;2278.40;;;;;;4975632;28;19924;-74
2021/11/06 04:32:59;;;;;;;;;;;282.40;2278.40;;;;;;4974008;28;19919;-75
2021/11/06 04:35:24;;;;;;;;;;;282.50;2278.40;;;;;;4975683;28;19917;-76
2021/11/06 04:37:50;;;;;;;;;;;282.40;2278.40;;;;;;4973764;28;19945;-75
2021/11/06 04:40:15;;;;;;;;;;;282.40;2278.40;;;;;;4975121;28;19953;-74
2021/11/06 04:42:41;;;;;;;;;;;282.50;2278.40;;;;;;4975451;28;19906;-75
2021/11/06 04:45:08;;;;;;;;;;;282.50;2278.40;;;;;;4974108;28;19906;-75
2021/11/06 04:47:34;;;;;;;;;;;282.50;2278.40;;;;;;4958120;28;20360;-80
2021/11/06 04:49:59;;;;;;;;;;;282.40;2278.40;;;;;;4975017;28;19910;-76
2021/11/06 04:52:26;;;;;;;;;;;282.40;2278.40;;;;;;4988895;28;19910;-75
2021/11/06 04:54:52;;;;;;;;;;;282.50;2278.40;;;;;;4974934;28;19921;-76
2021/11/06 04:57:17;;;;;;;;;;;282.20;2278.40;;;;;;4973878;28;19906;-74
2021/11/06 04:59:43;;;;;;;;;;;282.30;2278.40;;;;;;4983715;28;19917;-76
2021/11/06 05:02:09;;;;;;;;;;;282.30;2278.40;;;;;;4979733;28;19914;-77
2021/11/06 05:04:34;;;;;;;;;;;282.30;2278.40;;;;;;4974829;28;19913;-75
2021/11/06 05:07:00;;;;;;;;;;;282.40;2278.40;;;;;;4986344;28;19905;-75
2021/11/06 05:09:25;;;;;;;;;;;282.40;2278.40;;;;;;4989280;28;20685;-75
2021/11/06 05:11:51;;;;;;;;;;;282.40;2278.40;;;;;;4973574;28;20001;-75
2021/11/06 05:14:17;;;;;;;;;;;282.30;2278.40;;;;;;4987128;28;20300;-74
2021/11/06 05:16:43;;;;;;;;;;;282.40;2278.40;;;;;;4973328;28;19914;-75
2021/11/06 05:19:09;;;;;;;;;;;282.40;2278.40;;;;;;4973382;28;19912;-76
2021/11/06 05:21:38;;;;;;;;;;;282.30;2278.40;;;;;;4973285;28;19953;-75
2021/11/06 05:24:04;;;;;;;;;;;282.20;2278.40;;;;;;4974707;28;19957;-75
2021/11/06 05:26:30;;;;;;;;;;;282.30;2278.40;;;;;;4973107;28;19906;-78
2021/11/06 05:28:57;;;;;;;;;;;282.30;2278.40;;;;;;4984881;28;20386;-75
2021/11/06 05:31:22;;;;;;;;;;;282.40;2278.40;;;;;;4974620;28;19984;-75
2021/11/06 05:33:48;;;;;;;;;;;282.40;2278.40;;;;;;4974239;28;19953;-76
2021/11/06 05:36:13;;;;;;;;;;;282.30;2278.40;;;;;;4974280;28;20327;-74
2021/11/06 05:38:39;;;;;;;;;;;282.40;2278.40;;;;;;4977934;28;19949;-75
2021/11/06 05:41:05;;;;;;;;;;;282.40;2278.40;;;;;;4973291;28;20343;-76
2021/11/06 05:43:31;;;;;;;;;;;282.40;2278.40;;;;;;4974057;28;19910;-75
2021/11/06 05:45:57;;;;;;;;;;;282.30;2278.40;;;;;;4974361;28;19906;-76
2021/11/06 05:48:22;;;;;;;;;;;282.30;2278.40;;;;;;4972886;28;19910;-75
2021/11/06 05:50:48;;;;;;;;;;;282.20;2278.40;;;;;;4993312;28;20314;-75
2021/11/06 05:53:14;;;;;;;;;;;282.30;2278.40;;;;;;4981932;28;19906;-75
2021/11/06 05:55:39;;;;;;;;;;;282.30;2278.40;;;;;;4977417;28;20364;-75
2021/11/06 05:58:05;;;;;;;;;;;282.30;2278.40;;;;;;4966605;28;20049;-75
2021/11/06 06:00:31;;;;;;;;;;;282.40;2278.40;;;;;;4973589;28;19917;-75
2021/11/06 06:02:56;;;;;;;;;;;282.40;2278.40;;;;;;4974001;28;19911;-75
2021/11/06 06:05:22;;;;;;;;;;;282.30;2278.40;;;;;;4972563;28;19976;-75
2021/11/06 06:07:48;;;;;;;;;;;282.30;2278.40;;;;;;4973769;28;19988;-75
2021/11/06 06:10:14;;;;;;;;;;;282.20;2278.40;;;;;;4972361;28;19949;-75
2021/11/06 06:12:40;;;;;;;;;;;281.80;2278.40;;;;;;4973817;28;20005;-76
2021/11/06 06:15:06;;;;;;;;;;;281.80;2278.40;;;;;;4973561;28;20357;-75
2021/11/06 06:17:32;;;;;;;;;;;281.90;2278.40;;;;;;4972364;28;19906;-75
2021/11/06 06:19:57;;;;;;;;;;;281.60;2278.40;;;;;;4973601;28;19948;-75
2021/11/06 06:22:23;;;;;;;;;;;281.90;2278.40;;;;;;4973716;28;19906;-76
2021/11/06 06:24:50;;;;;;;;;;;281.80;2278.40;;;;;;4971319;28;19910;-76
2021/11/06 06:27:15;;;;;;;;;;;281.80;2278.40;;;;;;4984606;28;19906;-76
2021/11/06 06:29:41;;;;;;;;;;;282.00;2278.40;;;;;;4974386;28;19925;-77
2021/11/06 06:32:07;;;;;;;;;;;282.20;2278.40;;;;;;4972690;28;19928;-79
2021/11/06 06:34:33;;;;;;;;;;;282.20;2278.40;;;;;;4971343;28;19913;-76
2021/11/06 06:36:58;;;;;;;;;;;282.30;2278.40;;;;;;4963679;28;20700;-76
2021/11/06 06:39:24;;;;;;;;;;;282.20;2278.40;;;;;;4963059;28;19906;-78
2021/11/06 06:41:49;;;;;;;;;;;282.30;2278.40;;;;;;4963414;28;19925;-78
2021/11/06 06:44:15;;;;;;;;;;;282.30;2278.40;;;;;;4967672;28;19909;-77
2021/11/06 06:46:41;;;;;;;;;;;282.30;2278.40;;;;;;4973429;28;19962;-76
2021/11/06 06:49:06;;;;;;;;;;;282.30;2278.40;;;;;;4973692;28;19969;-76
2021/11/06 06:51:32;;;;;;;;;;;282.40;2278.40;;;;;;4973375;28;20357;-76
2021/11/06 06:53:58;;;;;;;;;;;282.50;2278.40;;;;;;4973284;28;19906;-75
2021/11/06 06:56:23;;;;;;;;;;;282.40;2278.40;;;;;;4973086;28;19936;-76
2021/11/06 06:58:49;;;;;;;;;;;282.30;2278.40;;;;;;4973143;28;19914;-75
2021/11/06 07:01:14;;;;;;;;;;;282.30;2278.40;;;;;;4973428;28;19909;-75
2021/11/06 07:03:40;;;;;;;;;;;282.30;2278.40;;;;;;4973188;28;19964;-75
2021/11/06 07:06:06;;;;;;;;;;;282.40;2278.40;;;;;;4953379;28;19914;-75
2021/11/06 07:08:31;;;;;;;;;;;282.40;2278.40;;;;;;4967536;28;20330;-76
2021/11/06 07:10:57;;;;;;;;;;;282.30;2278.40;;;;;;4975671;28;19997;-75
2021/11/06 07:13:24;;;;;;;;;;;282.30;2278.40;;;;;;4977071;28;20364;-75
2021/11/06 07:15:50;;;;;;;;;;;282.30;2278.40;;;;;;4976962;28;19918;-75
2021/11/06 07:18:16;;;;;;;;;;;282.30;2278.40;;;;;;4976966;28;19906;-75
2021/11/06 07:20:41;;;;;;;;;;;282.30;2278.40;;;;;;4977293;28;20326;-80
2021/11/06 07:23:07;;;;;;;;;;;282.30;2278.40;;;;;;4975767;28;20316;-76
2021/11/06 07:25:33;;;;;;;;;;;282.40;2278.40;;;;;;4975860;28;20260;-75
2021/11/06 07:28:00;;;;;;;;;;;282.40;2278.40;;;;;;4975893;28;19913;-76
2021/11/06 07:30:25;;;;;;;;;;;282.30;2278.40;;;;;;4977173;28;20399;-83
2021/11/06 07:32:51;;;;;;;;;;;282.30;2278.40;;;;;;4979940;28;19910;-78
2021/11/06 07:35:17;;;;;;;;;;;282.40;2278.40;;;;;;4984760;28;19914;-76
2021/11/06 07:37:42;;;;;;;;;;;282.30;2278.40;;;;;;4980889;28;19928;-76
2021/11/06 07:40:09;;;;;;;;;;;282.40;2278.40;;;;;;4975204;28;19910;-79
2021/11/06 07:42:39;;;;;;;;;;;282.20;2278.40;;;;;;4983504;28;20295;-78
2021/11/06 07:45:06;;;;;;;;;;;282.20;2278.40;;;;;;4980412;28;20349;-76
2021/11/06 07:47:31;;;;;;;;;;;282.30;2278.40;;;;;;4975601;28;20344;-79
2021/11/06 07:49:57;;;;;;;;;;;282.30;2278.40;;;;;;4975613;28;19913;-83
2021/11/06 07:52:23;;;;;;;;;;;282.40;2278.40;;;;;;4975266;28;19997;-79
2021/11/06 07:54:49;;;;;;;;;;;282.40;2278.40;;;;;;4975434;28;20009;-77
2021/11/06 07:57:14;;;;;;;;;;;282.50;2278.40;;;;;;4976438;28;19914;-75
2021/11/06 07:59:40;;;;;;;;;;;282.40;2278.40;;;;;;4975150;28;19917;-75
2021/11/06 08:02:05;;;;;;;;;;;282.50;2278.40;;;;;;4976046;28;20284;-81
2021/11/06 08:04:31;;;;;;;;;;;282.50;2278.40;;;;;;4976449;28;19910;-75
2021/11/06 08:06:57;;;;;;;;;;;282.50;2278.40;;;;;;4975989;28;19906;-76
2021/11/06 08:09:22;;;;;;;;;;;307.20;2304.00;;;;;;4976098;28;19906;-78
2021/11/06 08:11:48;;;;;;;;;;;307.20;2304.00;;;;;;4976276;28;19976;-77
2021/11/06 08:14:14;;;;;;;;;;;307.30;2304.00;;;;;;4975976;28;19906;-76
2021/11/06 08:16:39;;;;;;;;;;;282.50;2278.40;;;;;;4974779;28;19922;-80
2021/11/06 08:19:05;;;;;;;;;;;307.20;2304.00;;;;;;4973791;28;19976;-75
2021/11/06 08:21:31;;;;;;;;;;;282.50;2278.40;;;;;;4975631;28;20013;-78
2021/11/06 08:23:56;;;;;;;;;;;282.50;2278.40;;;;;;4975948;28;19913;-76
2021/11/06 08:26:22;;;;;;;;;;;307.20;2304.00;;;;;;4975749;28;19916;-76
2021/11/06 08:28:47;;;;;;;;;;;307.20;2304.00;;;;;;4974639;28;20337;-81
2021/11/06 08:31:13;;;;;;;;;;;282.50;2278.40;;;;;;4988266;28;19917;-76
2021/11/06 08:33:39;;;;;;;;;;;307.20;2304.00;;;;;;4984175;28;19914;-82
2021/11/06 08:36:04;;;;;;;;;;;307.20;2304.00;;;;;;4980659;28;19914;-81
2021/11/06 08:38:32;;;;;;;;;;;307.20;2304.00;;;;;;4991363;28;19909;-79
2021/11/06 08:40:58;;;;;;;;;;;282.40;2278.40;;;;;;4974637;28;19953;-78
2021/11/06 08:43:26;;;;;;;;;;;307.30;2304.00;;;;;;4974223;28;20344;-79
2021/11/06 08:45:51;;;;;;;;;;;307.50;2304.00;;;;;;4974693;28;20307;-77
2021/11/06 08:48:17;;;;;;;;;;;307.30;2304.00;;;;;;4988003;28;19913;-81
2021/11/06 08:50:43;;;;;;;;;;;307.30;2304.00;;;;;;4960982;28;19905;-76
2021/11/06 08:53:08;;;;;;;;;;;307.30;2304.00;;;;;;4975709;28;19914;-77
2021/11/06 08:55:34;;;;;;;;;;;282.50;2278.40;;;;;;4973781;28;19914;-76
2021/11/06 08:58:00;;;;;;;;;;;307.20;2304.00;;;;;;4974369;28;19906;-76
2021/11/06 09:00:32;;;;;;;;;;;307.30;2304.00;;;;;;4975991;28;20382;-82
2021/11/06 09:02:59;;;;;;;;;;;307.30;2304.00;;;;;;4969323;28;19910;-83
2021/11/06 09:05:25;;;;;;;;;;;307.30;2304.00;;;;;;4973947;28;20288;-75
2021/11/06 09:07:50;;;;;;;;;;;307.40;2304.00;;;;;;4988708;28;19906;-75
2021/11/06 09:10:17;;;;;;;;;;;307.30;2304.00;;;;;;4975161;28;19906;-78
2021/11/06 09:12:43;;;;;;;;;;;307.30;2304.00;;;;;;4987533;28;20004;-78
2021/11/06 09:15:08;;;;;;;;;;;307.30;2304.00;;;;;;4975347;28;19962;-76
2021/11/06 09:17:34;;;;;;;;;;;307.40;2304.00;;;;;;4987547;28;20004;-75
2021/11/06 09:20:00;;;;;;;;;;;307.30;2304.00;;;;;;4975007;28;19987;-76
2021/11/06 09:22:26;;;;;;;;;;;307.50;2304.00;;;;;;4974825;28;20458;-76
2021/11/06 09:24:52;;;;;;;;;;;307.60;2304.00;;;;;;4987174;28;20666;-75
2021/11/06 09:27:18;;;;;;;;;;;307.60;2304.00;;;;;;4974612;28;19948;-77
2021/11/06 09:29:44;;;;;;;;;;;307.70;2304.00;;;;;;4988388;28;19914;-77
2021/11/06 09:32:10;;;;;;;;;;;307.70;2304.00;;;;;;4972963;28;19933;-77
2021/11/06 09:34:37;;;;;;;;;;;307.70;2304.00;;;;;;4974661;28;19937;-77
2021/11/06 09:37:02;;;;;;;;;;;307.60;2304.00;;;;;;4974789;28;20005;-76
2021/11/06 09:39:28;;;;;;;;;;;307.60;2304.00;;;;;;4974311;28;20368;-74
2021/11/06 09:41:54;;;;;;;;;;;307.70;2304.00;;;;;;4974409;28;20390;-76
2021/11/06 09:44:19;;;;;;;;;;;307.60;2304.00;;;;;;4973401;28;19953;-76
2021/11/06 09:46:45;;;;;;;;;;;307.60;2304.00;;;;;;4974460;28;20356;-74
2021/11/06 09:49:11;;;;;;;;;;;307.60;2304.00;;;;;;4970810;28;19918;-76
2021/11/06 09:51:37;;;;;;;;;;;307.70;2304.00;;;;;;4969035;28;20360;-76
2021/11/06 09:54:04;;;;;;;;;;;307.70;2304.00;;;;;;4972633;28;19907;-82
2021/11/06 09:56:30;;;;;;;;;;;307.60;2304.00;;;;;;4973989;28;19950;-78
2021/11/06 09:59:00;;;;;;;;;;;307.50;2304.00;;;;;;4971870;28;19911;-76
2021/11/06 10:01:27;;;;;;;;;;;307.50;2304.00;;;;;;4962644;28;19911;-74
2021/11/06 10:03:52;;;;;;;;;;;307.50;2304.00;;;;;;4965766;28;20282;-75
2021/11/06 10:06:25;;;;;;;;;;;307.50;2304.00;;;;;;4963162;28;19917;-80
2021/11/06 10:08:52;;;;;;;;;;;307.70;2304.00;;;;;;4968478;28;19906;-72
2021/11/06 10:11:21;;;;;;;;;;;307.80;2304.00;;;;;;4973602;28;19928;-73
2021/11/06 10:13:50;;;;;;;;;;;307.80;2304.00;;;;;;4970165;28;19917;-72
2021/11/06 10:16:19;;;;;;;;;;;307.40;2304.00;;;;;;4964011;28;19918;-74
2021/11/06 10:18:44;;;;;;;;;;;307.50;2304.00;;;;;;4963113;28;20049;-73
2021/11/06 10:21:10;;;;;;;;;;;307.60;2304.00;;;;;;4962964;28;20383;-73
2021/11/06 10:23:41;;;;;;;;;;;307.60;2304.00;;;;;;4963360;28;19921;-73
2021/11/06 10:26:08;;;;;;;;;;;307.60;2304.00;;;;;;4969624;28;19906;-74
2021/11/06 10:28:34;;;;;;;;;;;307.60;2304.00;;;;;;4973539;28;20902;-72
2021/11/06 10:31:02;;;;;;;;;;;307.40;2304.00;;;;;;4973393;28;19953;-77
2021/11/06 10:33:28;;;;;;;;;;;307.90;2304.00;;;;;;4973597;28;19910;-76
2021/11/06 10:35:53;;;;;;;;;;;307.90;2304.00;;;;;;4972341;28;19914;-78
2021/11/06 10:38:19;;;;;;;;;;;307.90;2304.00;;;;;;4972511;28;20327;-78
2021/11/06 10:40:46;;;;;;;;;;;308.00;2304.00;;;;;;4973189;28;19913;-77
2021/11/06 10:43:13;;;;;;;;;;;307.90;2304.00;;;;;;4984130;28;19906;-74
2021/11/06 10:45:46;;;;;;;;;;;307.90;2304.00;;;;;;4972942;28;19992;-74
2021/11/06 10:48:16;;;;;;;;;;;307.90;2304.00;;;;;;4989853;28;19909;-72
2021/11/06 10:50:42;;;;;;;;;;;307.90;2304.00;;;;;;4977108;28;19906;-75
2021/11/06 10:53:08;;;;;;;;;;;308.00;2304.00;;;;;;4972507;28;19906;-77
2021/11/06 10:55:34;;;;;;;;;;;308.00;2304.00;;;;;;4973099;28;19943;-81
2021/11/06 10:58:01;;;;;;;;;;;308.00;2304.00;;;;;;4978199;28;19916;-76
2021/11/06 11:00:26;;;;;;;;;;;308.10;2304.00;;;;;;4964225;28;19922;-76
2021/11/06 11:02:52;;;;;;;;;;;308.10;2304.00;;;;;;4962788;28;19910;-75
2021/11/06 11:05:32;;;;;;;;;;;308.10;2304.00;;;;;;4970389;28;19906;-76
2021/11/06 11:08:08;;;;;;;;;;;308.10;2304.00;;;;;;4969876;28;19914;-81
2021/11/06 11:10:35;;;;;;;;;;;332.80;2329.60;;;;;;4971659;28;20383;-71
2021/11/06 11:13:20;;;;;;;;;;;332.80;2329.60;;;;;;4972814;28;19917;-72
2021/11/06 11:15:50;;;;;;;;;;;332.80;2329.60;;;;;;4973135;28;20024;-72
2021/11/06 11:18:36;;;;;;;;;;;308.00;2304.00;;;;;;4973439;28;20287;-75
2021/11/06 11:21:09;;;;;;;;;;;308.10;2304.00;;;;;;4971488;28;19953;-71
2021/11/06 11:23:35;;;;;;;;;;;308.10;2304.00;;;;;;4972901;28;19913;-73
2021/11/06 11:26:01;;;;;;;;;;;308.10;2304.00;;;;;;4967171;28;19910;-76
2021/11/06 11:28:27;;;;;;;;;;;307.90;2304.00;;;;;;4964016;28;19957;-75
2021/11/06 11:30:54;;;;;;;;;;;308.10;2304.00;;;;;;4962509;28;19922;-79
2021/11/06 11:33:20;;;;;;;;;;;332.80;2329.60;;;;;;4969137;28;19921;-74
2021/11/06 11:35:46;;;;;;;;;;;332.80;2329.60;;;;;;4964389;28;19914;-76
2021/11/06 11:38:12;;;;;;;;;;;308.10;2304.00;;;;;;4962926;28;20257;-74
2021/11/06 11:40:42;;;;;;;;;;;308.10;2304.00;;;;;;4971823;28;19930;-74
2021/11/06 11:43:20;;;;;;;;;;;308.10;2304.00;;;;;;4973304;28;19910;-73
2021/11/06 11:45:45;;;;;;;;;;;308.10;2304.00;;;;;;4973095;28;20355;-78
2021/11/06 11:48:12;;;;;;;;;;;308.00;2304.00;;;;;;4972905;28;20054;-74
2021/11/06 11:50:41;;;;;;;;;;;308.00;2304.00;;;;;;4972764;28;19906;-76
2021/11/06 11:53:08;;;;;;;;;;;308.10;2304.00;;;;;;4972000;28;19906;-75
2021/11/06 11:55:42;;;;;;;;;;;308.10;2304.00;;;;;;4971673;28;19965;-74
2021/11/06 11:58:20;;;;;;;;;;;308.00;2304.00;;;;;;4967420;28;20445;-79
2021/11/06 12:00:47;;;;;;;;;;;308.10;2304.00;;;;;;4966907;28;20421;-81
2021/11/06 12:03:13;;;;;;;;;;;308.00;2304.00;;;;;;4968022;28;19918;-78
2021/11/06 12:05:39;;;;;;;;;;;308.10;2304.00;;;;;;4971718;28;19913;-74
2021/11/06 12:08:11;;;;;;;;;;;308.10;2304.00;;;;;;4972532;28;19924;-75
2021/11/06 12:10:40;;;;;;;;;;;308.10;2304.00;;;;;;4968986;28;19925;-75
2021/11/06 12:13:30;;;;;;;;;;;308.10;2304.00;;;;;;4967189;28;19911;-75
2021/11/06 12:15:55;;;;;;;;;;;308.10;2304.00;;;;;;4972199;28;19914;-78
2021/11/06 12:18:33;;;;;;;;;;;308.00;2304.00;;;;;;4972572;28;19910;-75
2021/11/06 12:21:21;;;;;;;;;;;308.00;2304.00;;;;;;4967087;28;20001;-78
2021/11/06 12:23:48;;;;;;;;;;;308.00;2304.00;;;;;;4967910;28;19989;-75
2021/11/06 12:26:34;;;;;;;;;;;307.90;2304.00;;;;;;4975623;28;19992;-75
2021/11/06 12:29:05;;;;;;;;;;;307.80;2304.00;;;;;;4975940;28;19937;-72
2021/11/06 12:31:37;;;;;;;;;;;307.80;2304.00;;;;;;4975368;28;20371;-73
2021/11/06 12:34:03;;;;;;;;;;;307.70;2304.00;;;;;;4975500;28;20453;-74
2021/11/06 12:36:29;;;;;;;;;;;307.70;2304.00;;;;;;4973789;28;20042;-73
2021/11/06 12:38:56;;;;;;;;;;;307.80;2304.00;;;;;;4975595;28;19910;-73
2021/11/06 12:41:28;;;;;;;;;;;307.70;2304.00;;;;;;4975496;28;19918;-75
2021/11/06 12:43:54;;;;;;;;;;;307.50;2304.00;;;;;;4975390;28;20383;-78
2021/11/06 12:46:23;;;;;;;;;;;307.30;2304.00;;;;;;4974676;28;20355;-74
2021/11/06 12:48:49;;;;;;;;;;;307.80;2304.00;;;;;;4989146;28;20375;-75
2021/11/06 12:51:16;;;;;;;;;;;307.80;2304.00;;;;;;4975704;28;19913;-75
2021/11/06 12:53:44;;;;;;;;;;;307.90;2304.00;;;;;;4974063;28;19961;-74
2021/11/06 12:56:11;;;;;;;;;;;307.90;2304.00;;;;;;4975563;28;19914;-73
2021/11/06 12:58:38;;;;;;;;;;;308.00;2304.00;;;;;;4975146;28;20364;-74
2021/11/06 13:01:13;;;;;;;;;;;308.10;2304.00;;;;;;4975235;28;19917;-79
2021/11/06 13:03:40;;;;;;;;;;;308.10;2304.00;;;;;;4974868;28;19906;-73
2021/11/06 13:06:20;;;;;;;;;;;308.00;2304.00;;;;;;4963656;28;20360;-73
2021/11/06 13:09:01;;;;;;;;;;;308.00;2304.00;;;;;;4971790;28;19910;-71
2021/11/06 13:11:45;;;;;;;;;;;307.90;2304.00;;;;;;4965856;28;19945;-71
2021/11/06 13:14:20;;;;;;;;;;;307.80;2304.00;;;;;;4967784;28;19950;-80
2021/11/06 13:17:03;;;;;;;;;;;307.80;2304.00;;;;;;4969811;28;19914;-72
2021/11/06 13:19:38;;;;;;;;;;;307.80;2304.00;;;;;;4972919;28;19948;-76
2021/11/06 13:22:04;;;;;;;;;;;307.90;2304.00;;;;;;4973573;28;19913;-72
2021/11/06 13:24:48;;;;;;;;;;;307.80;2304.00;;;;;;4974634;28;20366;-75
2021/11/06 13:27:32;;;;;;;;;;;307.70;2304.00;;;;;;4974502;28;19906;-74
2021/11/06 13:30:13;;;;;;;;;;;307.70;2304.00;;;;;;4963736;28;19928;-77
2021/11/06 13:32:53;;;;;;;;;;;307.80;2304.00;;;;;;4974363;28;19917;-79
2021/11/06 13:35:20;;;;;;;;;;;307.80;2304.00;;;;;;4970739;28;19918;-74
2021/11/06 13:37:46;;;;;;;;;;;307.80;2304.00;;;;;;4974239;28;19910;-73
2021/11/06 13:40:12;;;;;;;;;;;307.80;2304.00;;;;;;4974727;28;19952;-74